Time;durP1;ratioP1;P1;durP2;ratioP2;P2;SDS_P1;SDS_P2;PMS_P1;PMS_P2;Temp;Humidity;BMP_temperature;BMP_pressure;BME280_temperature;BME280_humidity;BME280_pressure;Samples;Min_cycle;Max_cycle;Signal;HPM_P1;HPM_P2
2021/12/28 00:01:08;;;;;;;6.60;1.10;;;20.90;88.30;;;;;;5129738;27;20533;-83
2021/12/28 00:03:36;;;;;;;6.30;1.37;;;20.90;87.20;;;;;;5129631;27;20366;-83
2021/12/28 00:06:05;;;;;;;4.60;1.20;;;21.00;86.90;;;;;;5129482;27;20891;-82
2021/12/28 00:08:34;;;;;;;7.03;1.15;;;21.10;84.80;;;;;;5129368;27;20408;-82
2021/12/28 00:11:01;;;;;;;4.88;1.30;;;21.00;87.60;;;;;;5129335;27;20832;-84
2021/12/28 00:13:30;;;;;;;6.15;1.30;;;20.90;86.50;;;;;;5129338;27;20373;-85
2021/12/28 00:18:25;;;;;;;5.63;1.20;;;20.90;86.60;;;;;;5129375;27;20724;-84
2021/12/28 00:20:56;;;;;;;5.25;1.27;;;21.00;86.10;;;;;;5129308;27;20392;-83
2021/12/28 00:23:28;;;;;;;5.25;1.40;;;21.00;85.30;;;;;;5129661;27;20374;-85
2021/12/28 00:25:55;;;;;;;6.43;1.42;;;20.90;84.80;;;;;;5129330;27;20721;-84
2021/12/28 00:28:24;;;;;;;4.57;1.10;;;20.90;84.30;;;;;;5129437;27;20472;-84
2021/12/28 00:30:52;;;;;;;6.82;1.20;;;20.90;85.10;;;;;;5111111;27;20420;-83
2021/12/28 00:33:21;;;;;;;3.92;1.20;;;20.90;85.60;;;;;;5129225;27;20455;-84
2021/12/28 00:35:48;;;;;;;5.72;1.20;;;21.00;85.70;;;;;;5129211;27;20365;-84
2021/12/28 00:38:19;;;;;;;6.13;1.20;;;21.10;86.70;;;;;;5129228;28;20361;-86
2021/12/28 00:40:47;;;;;;;3.38;1.20;;;21.30;86.30;;;;;;5128898;28;20437;-86
2021/12/28 00:43:15;;;;;;;8.63;1.27;;;21.50;85.00;;;;;;5129196;28;20373;-83
2021/12/28 00:45:42;;;;;;;4.88;1.23;;;21.80;82.40;;;;;;5129165;28;20360;-88
2021/12/28 00:48:09;;;;;;;5.32;1.20;;;22.00;81.70;;;;;;5129153;28;20396;-86
2021/12/28 00:50:36;;;;;;;5.18;1.17;;;22.20;81.50;;;;;;5110942;28;20872;-87
2021/12/28 00:53:04;;;;;;;4.35;1.15;;;22.50;78.60;;;;;;5129516;28;20377;-86
2021/12/28 00:55:31;;;;;;;7.10;1.20;;;22.70;78.10;;;;;;5129257;28;20404;-87
2021/12/28 00:57:59;;;;;;;4.45;1.10;;;22.90;78.00;;;;;;5129089;28;20377;-93
2021/12/28 01:00:29;;;;;;;5.35;1.23;;;23.20;75.10;;;;;;5128817;28;20432;-88
2021/12/28 01:02:58;;;;;;;5.18;1.30;;;23.30;73.40;;;;;;5129153;28;20466;-86
2021/12/28 01:05:26;;;;;;;6.65;1.10;;;23.50;72.80;;;;;;5129318;28;20367;-87
2021/12/28 01:07:54;;;;;;;4.70;1.20;;;23.60;72.90;;;;;;5128823;28;20421;-87
2021/12/28 01:10:30;;;;;;;4.93;1.10;;;23.90;72.00;;;;;;5128832;27;20380;-87
2021/12/28 01:12:57;;;;;;;4.45;1.10;;;24.00;70.80;;;;;;5133015;27;20821;-87
2021/12/28 01:15:26;;;;;;;5.00;1.20;;;24.00;70.30;;;;;;5114449;27;20490;-86
2021/12/28 01:17:54;;;;;;;4.32;1.10;;;24.00;69.40;;;;;;5132668;27;20436;-86
2021/12/28 01:20:21;;;;;;;4.22;1.00;;;23.80;69.80;;;;;;5132669;27;20861;-89
2021/12/28 01:22:49;;;;;;;4.55;1.23;;;23.70;71.50;;;;;;5132816;27;20381;-87
2021/12/28 01:25:19;;;;;;;5.10;1.20;;;23.40;70.40;;;;;;5132684;27;20372;-86
2021/12/28 01:27:46;;;;;;;2.78;1.08;;;23.10;71.90;;;;;;5132592;27;20459;-86
2021/12/28 01:30:17;;;;;;;6.47;1.23;;;22.80;72.80;;;;;;5132555;27;20838;-87
2021/12/28 01:32:45;;;;;;;5.13;1.15;;;22.40;74.80;;;;;;5132487;27;20387;-85
2021/12/28 01:35:14;;;;;;;5.53;1.38;;;22.20;75.40;;;;;;5132428;27;20936;-86
2021/12/28 01:37:42;;;;;;;5.07;1.50;;;22.10;76.00;;;;;;5132465;27;20380;-87
2021/12/28 01:40:13;;;;;;;5.80;1.30;;;22.10;76.10;;;;;;5132164;27;20387;-86
2021/12/28 01:43:04;;;;;;;4.43;1.30;;;22.10;76.50;;;;;;5133083;27;20386;-86
2021/12/28 01:45:45;;;;;;;5.28;1.30;;;22.20;77.10;;;;;;5132871;27;20383;-85
2021/12/28 01:48:17;;;;;;;5.78;1.20;;;22.30;75.20;;;;;;5136229;27;20858;-86
2021/12/28 01:50:45;;;;;;;4.83;1.23;;;22.40;74.60;;;;;;5113856;27;20370;-86
2021/12/28 01:53:14;;;;;;;5.70;1.30;;;22.50;75.00;;;;;;5132086;27;20845;-86
2021/12/28 01:55:45;;;;;;;5.45;1.10;;;22.50;73.80;;;;;;5132049;27;20361;-87
2021/12/28 01:58:13;;;;;;;6.07;1.20;;;22.50;73.90;;;;;;5132154;27;20377;-85
2021/12/28 02:00:42;;;;;;;4.03;1.30;;;22.60;73.80;;;;;;5131962;27;20494;-86
2021/12/28 02:03:12;;;;;;;6.80;1.40;;;22.60;74.00;;;;;;5132595;27;20477;-86
2021/12/28 02:05:40;;;;;;;4.03;1.20;;;22.50;74.80;;;;;;5132491;27;20373;-84
2021/12/28 02:08:08;;;;;;;4.32;1.20;;;22.70;73.90;;;;;;5131994;27;20373;-84
2021/12/28 02:10:37;;;;;;;5.80;1.20;;;22.70;73.20;;;;;;5131872;27;20373;-86
2021/12/28 02:13:06;;;;;;;6.78;1.30;;;22.80;72.70;;;;;;5131753;27;20736;-85
2021/12/28 02:15:34;;;;;;;4.32;1.20;;;23.10;73.50;;;;;;5131845;27;20878;-86
2021/12/28 02:18:02;;;;;;;3.80;1.10;;;23.10;71.60;;;;;;5132984;27;20392;-86
2021/12/28 02:20:29;;;;;;;6.27;1.37;;;23.40;72.10;;;;;;5131733;27;20384;-84
2021/12/28 02:22:56;;;;;;;3.53;1.00;;;23.80;69.80;;;;;;5131028;27;20752;-86
2021/12/28 02:25:24;;;;;;;3.43;1.20;;;24.20;68.80;;;;;;5131541;27;20856;-86
2021/12/28 02:27:51;;;;;;;3.83;1.23;;;24.40;68.80;;;;;;5131679;27;20685;-87
2021/12/28 02:30:20;;;;;;;3.95;1.00;;;24.60;65.70;;;;;;5131429;27;20365;-86
2021/12/28 02:32:49;;;;;;;4.57;1.10;;;24.80;64.30;;;;;;5131746;27;20419;-86
2021/12/28 02:35:20;;;;;;;4.88;1.02;;;24.80;64.10;;;;;;5134272;27;20846;-88
2021/12/28 02:37:48;;;;;;;3.83;1.10;;;24.80;66.10;;;;;;5113034;27;20475;-88
2021/12/28 02:40:19;;;;;;;3.73;1.00;;;24.70;66.80;;;;;;5131017;27;20413;-88
2021/12/28 02:42:46;;;;;;;4.85;1.20;;;24.70;64.80;;;;;;5131821;27;20805;-85
2021/12/28 02:45:35;;;;;;;5.85;1.20;;;24.70;65.00;;;;;;5112734;27;20369;-86
2021/12/28 02:48:02;;;;;;;4.43;1.05;;;24.80;66.40;;;;;;5131109;27;20384;-88
2021/12/28 02:50:39;;;;;;;3.70;1.10;;;25.10;65.70;;;;;;5131212;27;20373;-86
2021/12/28 02:53:07;;;;;;;5.77;1.20;;;25.40;62.30;;;;;;5131145;27;20377;-86
2021/12/28 02:55:36;;;;;;;3.30;1.00;;;25.20;62.80;;;;;;5131046;27;20369;-87
2021/12/28 02:58:07;;;;;;;2.88;1.00;;;25.10;62.20;;;;;;5130884;27;20365;-88
2021/12/28 03:00:44;;;;;;;4.25;1.17;;;25.20;63.70;;;;;;5130817;27;20428;-87
2021/12/28 03:03:26;;;;;;;4.22;1.00;;;25.20;63.90;;;;;;5135398;27;20376;-88
2021/12/28 03:05:56;;;;;;;4.95;1.15;;;25.10;64.00;;;;;;5131062;27;20777;-89
2021/12/28 03:08:25;;;;;;;6.15;1.17;;;25.20;64.20;;;;;;5130942;27;20948;-89
2021/12/28 03:10:53;;;;;;;4.70;1.13;;;25.30;63.60;;;;;;5131428;27;20425;-91
2021/12/28 03:13:24;;;;;;;3.85;1.02;;;25.30;63.80;;;;;;5130702;27;20387;-87
2021/12/28 03:15:52;;;;;;;3.53;1.17;;;25.30;63.40;;;;;;5130611;27;20853;-89
2021/12/28 03:18:20;;;;;;;4.47;1.20;;;24.90;62.90;;;;;;5130677;27;20422;-85
2021/12/28 03:20:48;;;;;;;3.05;1.00;;;24.60;63.50;;;;;;5130520;27;20400;-86
2021/12/28 03:23:20;;;;;;;3.95;1.20;;;24.50;63.40;;;;;;5131195;27;20396;-85
2021/12/28 03:25:48;;;;;;;7.18;2.70;;;24.50;63.10;;;;;;5130719;27;20376;-85
2021/12/28 03:28:23;;;;;;;5.03;2.75;;;24.30;63.20;;;;;;5130700;27;20380;-86
2021/12/28 03:30:55;;;;;;;5.32;1.50;;;24.00;65.40;;;;;;5130545;27;20365;-87
2021/12/28 03:33:25;;;;;;;4.50;1.10;;;24.10;66.60;;;;;;5130316;27;20928;-85
2021/12/28 03:35:53;;;;;;;3.88;1.20;;;24.30;65.40;;;;;;5111518;27;21012;-88
2021/12/28 03:38:21;;;;;;;3.88;1.67;;;24.50;64.70;;;;;;5111698;27;20405;-89
2021/12/28 03:40:48;;;;;;;2.97;1.10;;;24.80;64.20;;;;;;5107975;28;20423;-87
2021/12/28 03:43:16;;;;;;;4.85;1.40;;;25.80;62.20;;;;;;5109618;28;20378;-87
2021/12/28 03:45:43;;;;;;;4.50;1.00;;;27.50;59.20;;;;;;5109385;28;20370;-89
2021/12/28 03:48:10;;;;;;;5.38;1.48;;;28.40;54.50;;;;;;5109736;28;20390;-88
2021/12/28 03:50:38;;;;;;;3.85;1.10;;;28.60;52.80;;;;;;5109252;28;20368;-88
2021/12/28 03:53:07;;;;;;;5.77;1.30;;;28.70;53.50;;;;;;5109664;28;20362;-88
2021/12/28 03:55:35;;;;;;;4.22;1.10;;;28.50;52.70;;;;;;5109235;28;20754;-87
2021/12/28 03:58:03;;;;;;;5.05;1.20;;;28.30;53.10;;;;;;5109222;28;20371;-87
2021/12/28 04:00:34;;;;;;;4.68;1.10;;;28.50;54.40;;;;;;5109629;28;20758;-88
2021/12/28 04:03:01;;;;;;;4.60;1.10;;;28.60;52.00;;;;;;5109330;28;20363;-87
2021/12/28 04:05:31;;;;;;;5.30;1.40;;;28.30;51.90;;;;;;5109139;28;20366;-88
2021/12/28 04:07:58;;;;;;;5.20;1.35;;;27.50;52.60;;;;;;5108880;28;20876;-89
2021/12/28 04:10:31;;;;;;;5.30;1.30;;;26.60;54.90;;;;;;5107398;28;20402;-88
2021/12/28 04:12:59;;;;;;;5.47;1.30;;;26.00;57.10;;;;;;5107415;28;20870;-87
2021/12/28 04:15:26;;;;;;;3.83;1.10;;;25.50;58.80;;;;;;5109086;28;20881;-87
2021/12/28 04:17:53;;;;;;;5.60;1.20;;;25.10;59.70;;;;;;5109272;28;20370;-88
2021/12/28 04:20:22;;;;;;;4.72;1.30;;;25.10;60.00;;;;;;5109724;28;20465;-87
2021/12/28 04:22:50;;;;;;;5.53;1.20;;;25.00;60.00;;;;;;5108802;28;20730;-87
2021/12/28 04:25:18;;;;;;;4.13;1.27;;;25.10;59.70;;;;;;5108613;28;20465;-85
2021/12/28 04:27:46;;;;;;;4.85;1.10;;;25.10;59.40;;;;;;5108683;28;20367;-87
2021/12/28 04:30:15;;;;;;;4.85;1.30;;;25.00;59.50;;;;;;5108668;28;20761;-88
2021/12/28 04:32:43;;;;;;;7.13;1.50;;;25.00;60.40;;;;;;5108743;28;20405;-87
2021/12/28 04:35:11;;;;;;;5.78;1.30;;;24.90;63.60;;;;;;5108801;28;20850;-87
2021/12/28 04:37:39;;;;;;;5.70;1.30;;;24.90;66.70;;;;;;5107422;28;20453;-87
2021/12/28 04:40:08;;;;;;;4.80;1.33;;;24.90;65.70;;;;;;5116771;28;20389;-87
2021/12/28 04:42:35;;;;;;;4.20;1.20;;;24.80;63.20;;;;;;5129061;28;20385;-87
2021/12/28 04:45:03;;;;;;;5.90;1.25;;;24.70;63.30;;;;;;5129699;27;20362;-87
2021/12/28 04:47:30;;;;;;;4.45;1.20;;;24.60;61.70;;;;;;5133378;27;20457;-88
2021/12/28 04:49:58;;;;;;;5.60;1.15;;;24.40;61.40;;;;;;5133545;27;20372;-87
2021/12/28 04:52:28;;;;;;;4.07;1.15;;;24.30;62.00;;;;;;5133583;27;20356;-86
2021/12/28 04:54:55;;;;;;;4.82;1.17;;;24.10;62.10;;;;;;5133243;27;20380;-88
2021/12/28 04:57:22;;;;;;;6.47;1.30;;;23.90;61.70;;;;;;5133198;27;20855;-86
2021/12/28 04:59:49;;;;;;;5.43;1.10;;;23.80;62.70;;;;;;5133479;27;20729;-86
2021/12/28 05:02:16;;;;;;;4.05;1.00;;;23.80;63.80;;;;;;5114582;27;20415;-86
2021/12/28 05:04:46;;;;;;;3.40;1.08;;;23.80;63.70;;;;;;5132881;27;20444;-87
2021/12/28 05:07:13;;;;;;;4.90;1.25;;;23.80;63.80;;;;;;5132917;27;20397;-87
2021/12/28 05:09:40;;;;;;;4.72;1.17;;;23.80;63.50;;;;;;5132912;27;20368;-86
2021/12/28 05:12:08;;;;;;;5.13;1.20;;;23.80;62.30;;;;;;5133865;27;20365;-87
2021/12/28 05:14:39;;;;;;;3.33;1.15;;;23.70;63.80;;;;;;5132820;27;20375;-87
2021/12/28 05:17:06;;;;;;;2.85;1.10;;;23.80;62.60;;;;;;5114518;27;20728;-86
2021/12/28 05:19:34;;;;;;;5.20;1.00;;;23.90;62.40;;;;;;5114491;27;20434;-87
2021/12/28 05:22:01;;;;;;;5.15;1.08;;;24.00;61.40;;;;;;5132723;27;20396;-87
2021/12/28 05:24:28;;;;;;;5.70;1.10;;;23.90;60.80;;;;;;5132783;27;20373;-86
2021/12/28 05:26:55;;;;;;;4.15;1.10;;;24.10;60.80;;;;;;5132747;27;20368;-86
2021/12/28 05:29:22;;;;;;;4.20;1.20;;;24.10;61.40;;;;;;5133192;27;20372;-88
2021/12/28 05:31:49;;;;;;;3.87;1.00;;;24.10;60.60;;;;;;5133309;27;20372;-87
2021/12/28 05:34:16;;;;;;;6.53;1.27;;;24.10;61.70;;;;;;5114185;27;20867;-88
2021/12/28 05:36:43;;;;;;;5.73;1.10;;;24.00;63.60;;;;;;5114162;27;20381;-87
2021/12/28 05:39:10;;;;;;;7.17;1.17;;;23.90;63.70;;;;;;5114185;27;20396;-87
2021/12/28 05:41:38;;;;;;;4.60;0.90;;;23.90;64.40;;;;;;5132575;27;20471;-87
2021/12/28 05:44:05;;;;;;;4.82;0.82;;;24.10;63.50;;;;;;5132349;27;20369;-86
2021/12/28 05:46:32;;;;;;;3.83;1.08;;;24.00;63.20;;;;;;5113905;27;20373;-86
2021/12/28 05:49:00;;;;;;;4.85;1.15;;;24.00;63.50;;;;;;5132404;27;20369;-86
2021/12/28 05:51:27;;;;;;;4.13;0.93;;;24.00;63.90;;;;;;5132471;27;20374;-86
2021/12/28 05:53:54;;;;;;;4.97;1.08;;;23.90;63.20;;;;;;5113800;27;20867;-86
2021/12/28 05:56:21;;;;;;;5.25;1.13;;;23.80;62.90;;;;;;5131786;27;20393;-86
2021/12/28 05:58:48;;;;;;;3.75;1.00;;;23.60;63.90;;;;;;5131547;27;20361;-86
2021/12/28 06:01:15;;;;;;;5.10;0.90;;;23.60;64.30;;;;;;5113519;27;20389;-87
2021/12/28 06:03:43;;;;;;;4.65;1.10;;;23.50;64.50;;;;;;5132213;27;20399;-86
2021/12/28 06:06:10;;;;;;;3.78;1.05;;;23.30;65.30;;;;;;5132358;27;20365;-86
2021/12/28 06:08:37;;;;;;;5.40;1.10;;;23.20;65.60;;;;;;5131727;27;20365;-86
2021/12/28 06:11:07;;;;;;;4.55;1.17;;;23.10;65.90;;;;;;5113564;27;20474;-87
2021/12/28 06:13:34;;;;;;;4.55;1.17;;;23.00;66.30;;;;;;5134386;27;20836;-87
2021/12/28 06:16:01;;;;;;;4.50;1.10;;;23.00;67.50;;;;;;5133050;27;20760;-86
2021/12/28 06:18:28;;;;;;;4.93;1.03;;;22.80;66.80;;;;;;5131883;27;20372;-87
2021/12/28 06:20:55;;;;;;;4.10;1.10;;;22.60;67.70;;;;;;5131604;27;20389;-87
2021/12/28 06:23:22;;;;;;;4.97;1.10;;;22.50;67.90;;;;;;5132022;27;20380;-87
2021/12/28 06:25:49;;;;;;;5.77;1.00;;;22.40;69.00;;;;;;5120576;27;20721;-86
2021/12/28 06:28:16;;;;;;;5.83;1.10;;;22.30;69.20;;;;;;5113367;27;20374;-84
2021/12/28 06:30:43;;;;;;;4.37;1.00;;;22.10;69.60;;;;;;5113223;27;20736;-85
2021/12/28 06:33:11;;;;;;;6.43;1.20;;;22.00;70.20;;;;;;5131468;27;20434;-85
2021/12/28 06:35:38;;;;;;;5.88;1.00;;;21.90;70.50;;;;;;5131812;27;20743;-87
2021/12/28 06:38:05;;;;;;;6.35;1.23;;;21.60;70.90;;;;;;5131194;27;20369;-84
2021/12/28 06:40:32;;;;;;;5.20;1.20;;;21.30;72.20;;;;;;5130895;27;20425;-84
2021/12/28 06:42:59;;;;;;;7.13;1.20;;;21.10;73.40;;;;;;5131269;27;20373;-84
2021/12/28 06:45:27;;;;;;;5.13;1.20;;;20.90;74.40;;;;;;5131098;27;20366;-85
2021/12/28 06:47:54;;;;;;;5.20;1.00;;;20.70;76.00;;;;;;5112681;27;20736;-85
2021/12/28 06:50:21;;;;;;;6.10;1.20;;;20.50;76.90;;;;;;5131185;27;20720;-85
2021/12/28 06:52:48;;;;;;;5.70;1.20;;;20.40;78.00;;;;;;5130918;27;20373;-85
2021/12/28 06:55:15;;;;;;;5.00;1.15;;;20.30;78.70;;;;;;5130658;27;20848;-84
2021/12/28 06:57:42;;;;;;;7.47;1.25;;;20.30;79.40;;;;;;5130877;27;20748;-87
2021/12/28 07:00:13;;;;;;;6.57;1.20;;;20.00;80.20;;;;;;5112359;27;20451;-85
2021/12/28 07:02:41;;;;;;;6.40;1.10;;;20.00;81.10;;;;;;5131002;27;20651;-85
2021/12/28 07:05:09;;;;;;;3.90;1.02;;;20.80;79.20;;;;;;5130619;27;20375;-86
2021/12/28 07:07:36;;;;;;;6.93;1.40;;;22.00;75.40;;;;;;5130660;27;20430;-85
2021/12/28 07:10:08;;;;;;;4.18;1.10;;;22.90;71.50;;;;;;5130503;27;20397;-85
2021/12/28 07:12:36;;;;;;;5.43;1.10;;;23.70;67.20;;;;;;5130387;27;20361;-86
2021/12/28 07:15:04;;;;;;;4.05;1.00;;;24.20;64.60;;;;;;5130394;27;20488;-86
2021/12/28 07:17:31;;;;;;;5.28;1.00;;;24.70;63.10;;;;;;5130307;27;20457;-86
2021/12/28 07:19:58;;;;;;;4.97;1.20;;;25.10;61.30;;;;;;5130412;27;20844;-86
2021/12/28 07:22:25;;;;;;;4.43;1.20;;;25.60;60.80;;;;;;5130195;27;20474;-86
2021/12/28 07:24:52;;;;;;;3.93;1.10;;;25.80;59.40;;;;;;5130557;27;20777;-86
2021/12/28 07:27:19;;;;;;;5.72;1.20;;;25.80;59.00;;;;;;5130606;27;20373;-85
2021/12/28 07:29:46;;;;;;;4.13;1.17;;;25.70;58.60;;;;;;5129967;27;20879;-86
2021/12/28 07:32:13;;;;;;;5.25;1.02;;;25.40;58.70;;;;;;5111463;27;20396;-85
2021/12/28 07:34:40;;;;;;;3.75;1.00;;;25.00;59.30;;;;;;5130005;27;20865;-86
2021/12/28 07:37:07;;;;;;;4.93;1.10;;;24.80;59.80;;;;;;5111375;27;20403;-85
2021/12/28 07:39:35;;;;;;;3.42;0.95;;;24.50;60.40;;;;;;5129467;27;20724;-87
2021/12/28 07:42:04;;;;;;;4.00;1.17;;;24.50;60.90;;;;;;5129904;27;20404;-87
2021/12/28 07:44:31;;;;;;;4.82;1.23;;;24.80;60.20;;;;;;5129805;27;20398;-86
2021/12/28 07:46:58;;;;;;;4.35;1.10;;;24.90;59.50;;;;;;5130705;27;20493;-88
2021/12/28 07:49:25;;;;;;;3.85;1.10;;;25.00;60.10;;;;;;5130012;27;20365;-85
2021/12/28 07:51:52;;;;;;;6.68;1.20;;;25.00;59.70;;;;;;5129684;27;20462;-85
2021/12/28 07:54:20;;;;;;;4.55;1.00;;;25.00;59.60;;;;;;5129803;27;20371;-84
2021/12/28 07:56:47;;;;;;;4.82;1.10;;;24.70;59.80;;;;;;5129759;27;20832;-87
2021/12/28 07:59:14;;;;;;;5.68;1.00;;;24.30;60.70;;;;;;5129679;27;20452;-84
2021/12/28 08:01:41;;;;;;;5.47;1.10;;;24.10;61.20;;;;;;5129792;27;20448;-83
2021/12/28 08:04:08;;;;;;;5.60;1.17;;;23.70;62.70;;;;;;5130062;27;20369;-83
2021/12/28 08:06:35;;;;;;;5.90;1.30;;;23.60;63.20;;;;;;5129951;27;20369;-84
2021/12/28 08:09:03;;;;;;;5.43;1.05;;;23.10;64.60;;;;;;5129729;27;20362;-84
2021/12/28 08:11:30;;;;;;;5.65;1.02;;;23.00;65.40;;;;;;5130647;27;20852;-84
2021/12/28 08:13:57;;;;;;;5.43;1.10;;;22.90;66.00;;;;;;5129863;27;20372;-84
2021/12/28 08:16:24;;;;;;;3.70;1.10;;;22.50;66.70;;;;;;5111674;27;20405;-84
2021/12/28 08:18:51;;;;;;;6.13;1.20;;;22.30;67.70;;;;;;5131877;27;20369;-83
2021/12/28 08:21:19;;;;;;;5.95;1.20;;;22.00;69.30;;;;;;5129310;27;20397;-83
2021/12/28 08:23:46;;;;;;;5.45;1.20;;;21.90;69.70;;;;;;5129899;27;20365;-86
2021/12/28 08:26:16;;;;;;;5.75;1.17;;;21.70;70.90;;;;;;5129133;27;20409;-83
2021/12/28 08:28:43;;;;;;;7.10;1.38;;;21.50;71.70;;;;;;5129422;27;20377;-85
2021/12/28 08:31:11;;;;;;;5.82;1.23;;;21.30;72.70;;;;;;5129063;27;20383;-85
2021/12/28 08:33:38;;;;;;;7.78;1.30;;;21.20;73.90;;;;;;5129270;27;20369;-84
2021/12/28 08:36:05;;;;;;;5.30;1.20;;;21.00;74.20;;;;;;5129165;27;20740;-86
2021/12/28 08:38:32;;;;;;;7.10;1.20;;;20.80;75.30;;;;;;5129422;27;20425;-85
2021/12/28 08:41:00;;;;;;;6.53;1.30;;;20.70;76.20;;;;;;5129118;27;20393;-86
2021/12/28 08:43:27;;;;;;;8.88;1.40;;;20.50;77.10;;;;;;5129186;28;20419;-86
2021/12/28 08:45:54;;;;;;;5.47;1.10;;;20.40;77.90;;;;;;5129169;28;20825;-87
2021/12/28 08:48:21;;;;;;;5.63;1.25;;;20.10;79.10;;;;;;5129082;28;20727;-82
2021/12/28 08:50:48;;;;;;;4.43;1.00;;;19.80;80.10;;;;;;5128955;28;20369;-94
2021/12/28 08:53:15;;;;;;;6.88;1.10;;;19.60;81.20;;;;;;5129581;28;20456;-85
2021/12/28 08:55:43;;;;;;;4.07;1.10;;;19.40;82.40;;;;;;5110777;28;20803;-91
2021/12/28 08:58:10;;;;;;;7.97;1.17;;;19.20;83.60;;;;;;5130502;28;20706;-86
2021/12/28 09:00:38;;;;;;;4.77;1.30;;;19.00;85.50;;;;;;5129798;28;20414;-91
2021/12/28 09:03:06;;;;;;;6.27;1.23;;;18.80;86.60;;;;;;5129402;28;20400;-85
2021/12/28 09:05:35;;;;;;;5.53;1.30;;;18.70;88.50;;;;;;5132028;28;20365;-90
2021/12/28 09:08:05;;;;;;;5.50;1.30;;;18.50;90.00;;;;;;5129133;28;20384;-85
2021/12/28 09:10:33;;;;;;;7.28;1.30;;;18.40;90.40;;;;;;5129187;28;20357;-87
2021/12/28 09:13:00;;;;;;;6.72;1.30;;;18.30;91.00;;;;;;5110577;28;20377;-88
2021/12/28 09:15:27;;;;;;;8.27;1.33;;;18.10;91.80;;;;;;5128739;28;20489;-83
2021/12/28 09:17:54;;;;;;;6.57;1.25;;;18.10;92.30;;;;;;5128693;28;20460;-83
2021/12/28 09:20:26;;;;;;;5.68;1.30;;;18.00;92.60;;;;;;5128815;28;20401;-84
2021/12/28 09:22:55;;;;;;;6.40;1.25;;;17.90;93.40;;;;;;5128760;28;20369;-83
2021/12/28 09:25:24;;;;;;;6.20;1.20;;;17.80;93.90;;;;;;5110102;28;20806;-83
2021/12/28 09:27:52;;;;;;;5.72;1.20;;;17.70;94.50;;;;;;5128497;28;20365;-83
2021/12/28 09:30:23;;;;;;;6.00;1.25;;;17.70;95.10;;;;;;5128457;28;20379;-82
2021/12/28 09:32:51;;;;;;;6.93;1.27;;;17.70;95.40;;;;;;5130379;27;20381;-83
2021/12/28 09:35:18;;;;;;;5.57;1.10;;;17.50;95.70;;;;;;5132540;27;20408;-83
2021/12/28 09:37:45;;;;;;;6.88;1.48;;;17.50;95.80;;;;;;5114127;27;20740;-83
2021/12/28 09:40:13;;;;;;;6.07;1.30;;;17.40;96.10;;;;;;5132350;27;20392;-82
2021/12/28 09:42:42;;;;;;;6.90;1.30;;;17.30;96.30;;;;;;5132421;27;20725;-83
2021/12/28 09:45:12;;;;;;;6.28;1.40;;;17.20;96.50;;;;;;5132132;27;20367;-83
2021/12/28 09:47:41;;;;;;;6.35;1.30;;;17.20;96.80;;;;;;5132475;27;20472;-83
2021/12/28 09:50:11;;;;;;;7.32;1.38;;;17.10;97.00;;;;;;5132212;27;20369;-83
2021/12/28 09:52:40;;;;;;;7.20;1.30;;;17.00;97.40;;;;;;5132351;27;20754;-82
2021/12/28 09:55:08;;;;;;;8.27;1.25;;;17.00;97.60;;;;;;5113535;27;20384;-83
2021/12/28 09:57:35;;;;;;;6.13;1.30;;;17.00;97.70;;;;;;5131881;27;20376;-83
2021/12/28 10:00:04;;;;;;;6.05;1.42;;;16.90;97.90;;;;;;5131879;27;20373;-82
2021/12/28 10:02:31;;;;;;;8.40;1.35;;;16.90;98.30;;;;;;5131795;27;20865;-83
2021/12/28 10:05:09;;;;;;;7.25;1.33;;;16.90;98.70;;;;;;5131885;27;20374;-83
2021/12/28 10:07:42;;;;;;;6.65;1.40;;;16.80;98.90;;;;;;5131604;27;20448;-84
2021/12/28 10:10:10;;;;;;;6.82;1.30;;;16.90;99.20;;;;;;5131716;27;20357;-82
2021/12/28 10:12:40;;;;;;;7.97;1.30;;;16.90;99.20;;;;;;5131758;27;20495;-83
2021/12/28 10:15:12;;;;;;;5.78;1.48;;;16.90;99.30;;;;;;5132247;27;20361;-83
2021/12/28 10:17:42;;;;;;;5.85;1.40;;;17.00;99.70;;;;;;5132069;27;20366;-82
2021/12/28 10:20:19;;;;;;;5.68;1.33;;;17.00;99.60;;;;;;5131810;27;20381;-84
2021/12/28 10:22:52;;;;;;;6.15;1.45;;;17.00;99.90;;;;;;5131551;27;20395;-83
2021/12/28 10:25:21;;;;;;;9.02;1.90;;;17.10;99.40;;;;;;5131732;27;20349;-85
2021/12/28 10:27:51;;;;;;;5.30;1.00;;;17.20;98.90;;;;;;5131566;27;20871;-84
2021/12/28 10:30:25;;;;;;;5.63;1.20;;;17.20;98.80;;;;;;5131433;27;20365;-83
2021/12/28 10:32:58;;;;;;;9.82;1.40;;;17.30;98.40;;;;;;5131565;27;20371;-83
2021/12/28 10:35:28;;;;;;;5.27;1.23;;;17.30;98.30;;;;;;5131405;27;20355;-84
2021/12/28 10:38:02;;;;;;;7.57;1.20;;;17.20;98.30;;;;;;5131395;27;20536;-84
2021/12/28 10:40:33;;;;;;;5.55;1.05;;;17.20;98.10;;;;;;5112588;27;20419;-87
2021/12/28 10:43:05;;;;;;;6.28;1.17;;;17.20;98.20;;;;;;5131043;27;20393;-83
2021/12/28 10:45:47;;;;;;;5.22;1.02;;;17.20;98.40;;;;;;5131149;27;20361;-83
2021/12/28 10:48:20;;;;;;;6.45;1.20;;;17.10;98.20;;;;;;5131120;27;20390;-82
2021/12/28 10:51:12;;;;;;;5.45;1.10;;;17.10;98.30;;;;;;5131755;27;20452;-80
2021/12/28 10:53:48;;;;;;;6.97;1.20;;;17.10;98.60;;;;;;5130904;27;20365;-82
2021/12/28 10:56:16;;;;;;;4.68;1.08;;;17.10;98.50;;;;;;5131218;27;20361;-81
2021/12/28 10:58:45;;;;;;;5.50;1.20;;;17.10;98.60;;;;;;5130933;27;20369;-82
2021/12/28 11:01:23;;;;;;;5.27;1.10;;;17.10;98.80;;;;;;5130775;27;20392;-81
2021/12/28 11:04:00;;;;;;;6.70;1.27;;;17.00;98.80;;;;;;5130873;27;20372;-81
2021/12/28 11:06:30;;;;;;;7.78;1.25;;;16.90;99.50;;;;;;5130745;27;20365;-81
2021/12/28 11:09:03;;;;;;;7.20;1.33;;;16.80;99.40;;;;;;5130734;27;20866;-82
2021/12/28 11:11:33;;;;;;;5.77;1.23;;;16.80;99.70;;;;;;5131095;27;20369;-81
2021/12/28 11:14:03;;;;;;;4.45;1.10;;;16.70;99.90;;;;;;5130578;27;20938;-83
2021/12/28 11:16:32;;;;;;;5.43;1.20;;;16.60;99.90;;;;;;5131303;27;20452;-81
2021/12/28 11:19:03;;;;;;;7.00;1.40;;;16.50;99.90;;;;;;5130575;27;20369;-81
2021/12/28 11:21:40;;;;;;;4.38;1.25;;;16.50;99.90;;;;;;5130351;27;20389;-81
2021/12/28 11:24:13;;;;;;;4.45;1.10;;;16.50;99.90;;;;;;5130340;27;20752;-82
2021/12/28 11:26:44;;;;;;;8.25;1.38;;;16.40;99.90;;;;;;5111960;27;20460;-81
2021/12/28 11:29:15;;;;;;;4.25;1.17;;;16.40;99.90;;;;;;5130436;27;20361;-82
2021/12/28 11:31:44;;;;;;;6.35;1.60;;;16.30;99.90;;;;;;5130666;27;20422;-82
2021/12/28 11:34:30;;;;;;;6.70;1.42;;;16.30;99.90;;;;;;5130319;27;20437;-82
2021/12/28 11:37:00;;;;;;;8.10;1.45;;;16.30;99.90;;;;;;5130275;27;20429;-81
2021/12/28 11:39:41;;;;;;;6.57;1.40;;;16.20;99.90;;;;;;5129976;27;20361;-82
2021/12/28 11:42:11;;;;;;;8.77;1.63;;;16.20;99.90;;;;;;5130007;27;20393;-87
2021/12/28 11:44:39;;;;;;;5.28;1.45;;;16.20;99.90;;;;;;5130920;27;20357;-82
2021/12/28 11:47:10;;;;;;;5.95;1.40;;;16.20;99.90;;;;;;5130073;27;20380;-83
2021/12/28 11:49:40;;;;;;;6.22;1.48;;;16.20;99.90;;;;;;5129923;27;20388;-81
2021/12/28 11:52:11;;;;;;;6.15;1.27;;;16.20;99.90;;;;;;5130220;27;20410;-82
2021/12/28 11:54:44;;;;;;;6.82;1.25;;;16.20;99.90;;;;;;5110823;28;20373;-81
2021/12/28 11:57:26;;;;;;;6.53;1.20;;;16.20;99.90;;;;;;5129827;27;20369;-81
2021/12/28 12:00:10;;;;;;;5.35;1.30;;;16.10;99.90;;;;;;5129620;27;20384;-81
2021/12/28 12:02:47;;;;;;;5.32;1.20;;;16.10;99.90;;;;;;5129619;27;20389;-83
2021/12/28 12:05:21;;;;;;;5.18;1.45;;;16.10;99.90;;;;;;5110798;27;20369;-83
2021/12/28 12:08:08;;;;;;;6.22;1.10;;;16.10;99.90;;;;;;5129590;27;20862;-81
2021/12/28 12:10:37;;;;;;;4.93;1.23;;;16.00;99.90;;;;;;5129635;27;20365;-82
2021/12/28 12:13:12;;;;;;;7.68;1.20;;;16.00;99.90;;;;;;5129402;27;20372;-82
2021/12/28 12:15:42;;;;;;;5.10;1.17;;;16.00;99.90;;;;;;5129466;27;20357;-82
2021/12/28 12:18:12;;;;;;;6.77;1.10;;;16.00;99.90;;;;;;5129415;27;20373;-82
2021/12/28 12:20:47;;;;;;;4.83;1.10;;;15.90;99.90;;;;;;5129392;27;20439;-82
2021/12/28 12:23:22;;;;;;;7.65;1.20;;;15.80;99.90;;;;;;5129379;27;20369;-83
2021/12/28 12:25:57;;;;;;;8.07;1.20;;;15.80;99.90;;;;;;5129391;27;20353;-83
2021/12/28 12:28:37;;;;;;;7.38;1.30;;;15.80;99.90;;;;;;5129798;27;20430;-81
2021/12/28 12:31:11;;;;;;;4.85;1.27;;;15.70;99.90;;;;;;5129360;27;20437;-81
2021/12/28 12:33:44;;;;;;;6.70;1.00;;;15.60;99.90;;;;;;5129441;27;20369;-82
2021/12/28 12:36:22;;;;;;;6.30;1.20;;;15.60;99.90;;;;;;5129168;27;20369;-83
2021/12/28 12:38:52;;;;;;;6.75;1.02;;;15.60;99.90;;;;;;5129187;27;20373;-83
2021/12/28 12:41:39;;;;;;;4.63;1.10;;;15.50;99.90;;;;;;5128875;27;20477;-84
2021/12/28 12:44:12;;;;;;;5.53;1.13;;;15.50;99.90;;;;;;5129182;27;20361;-82
2021/12/28 12:46:43;;;;;;;6.78;1.10;;;15.50;99.90;;;;;;5129199;28;20409;-83
2021/12/28 12:49:29;;;;;;;5.57;1.10;;;15.40;99.90;;;;;;5128899;28;20372;-83
2021/12/28 12:52:00;;;;;;;6.10;1.20;;;15.30;99.90;;;;;;5129047;28;20594;-83
2021/12/28 12:54:31;;;;;;;6.63;1.20;;;15.30;99.90;;;;;;5129217;28;20361;-82
2021/12/28 12:57:01;;;;;;;8.13;1.23;;;15.30;99.90;;;;;;5129337;28;20365;-81
2021/12/28 12:59:36;;;;;;;4.57;0.93;;;15.20;99.90;;;;;;5129626;28;20392;-81
2021/12/28 13:02:11;;;;;;;6.97;1.20;;;15.20;99.90;;;;;;5128870;28;20399;-82